.
WxDataArchive / Data Records for 2008-03-26
2008-03-25 March 2008 2008-03-27

Data Records for Wednesday, 26 March 2008

Time	Temp	Chill	HIndex	Humid	Dewpt	 Wind 	HiWind	WindDir	Rain 	Barom 
-----	----	-----	------	-----	-----	------	------	-------	-----	----- 
00:00	43.3	43.3	43.3	57	29.1	1	3	248	0.00	29.956 
00:05	43.2	43.2	43.2	58	29.4	0	3	248	0.00	29.956 
00:10	42.9	42.9	42.9	58	29.2	0	1	225	0.00	29.958 
00:15	42.6	42.6	42.6	59	29.3	0	2	248	0.00	29.959 
00:20	42.3	42.3	42.3	59	29.0	0	1	248	0.00	29.960 
00:25	42.2	42.2	42.2	60	29.3	0	1	248	0.00	29.962 
00:30	42.1	42.1	42.1	60	29.2	0	2	248	0.00	29.961 
00:35	41.8	41.8	41.8	60	28.9	1	3	225	0.00	29.962 
00:40	41.8	41.8	41.8	60	28.9	1	3	225	0.00	29.962 
00:45	41.8	41.8	41.8	60	28.9	1	3	248	0.00	29.963 
00:50	41.6	41.6	41.6	60	28.8	0	1	248	0.00	29.965 
00:55	41.6	41.6	41.6	61	29.2	1	3	248	0.00	29.967 
01:00	41.3	41.3	41.3	61	28.9	0	1	248	0.00	29.971 
01:05	41.2	41.2	41.2	61	28.8	0	2	248	0.00	29.971 
01:10	41.1	41.1	41.1	61	28.7	0	2	248	0.00	29.972 
01:15	40.9	40.9	40.9	61	28.5	0	2	248	0.00	29.976 
01:20	40.8	40.8	40.8	62	28.8	0	2	225	0.00	29.977 
01:25	40.6	40.6	40.6	62	28.6	0	1	225	0.00	29.977 
01:30	40.5	40.5	40.5	62	28.5	0	1	225	0.00	29.978 
01:35	40.5	40.5	40.5	62	28.5	1	2	225	0.00	29.981 
01:40	40.6	40.6	40.6	62	28.6	1	3	248	0.00	29.981 
01:45	40.6	40.6	40.6	61	28.2	1	3	248	0.00	29.979 
01:50	40.6	40.6	40.6	61	28.2	1	2	248	0.00	29.979 
01:55	40.5	40.5	40.5	61	28.1	0	2	248	0.00	29.980 
02:00	40.3	40.3	40.3	61	27.9	0	2	248	0.00	29.982 
02:05	40.2	40.2	40.2	61	27.8	0	2	248	0.00	29.979 
02:10	40.1	40.1	40.1	62	28.1	0	2	248	0.00	29.979 
02:15	39.8	39.8	39.8	62	27.9	0	1	248	0.00	29.981 
02:20	39.6	39.6	39.6	62	27.7	0	1	248	0.00	29.986 
02:25	39.5	39.5	39.5	62	27.6	0	1	248	0.00	29.988 
02:30	39.3	39.3	39.3	62	27.4	0	1	248	0.00	29.986 
02:35	39.3	39.3	39.3	63	27.8	0	1	248	0.00	29.984 
02:40	39.2	39.2	39.2	63	27.7	0	1	248	0.00	29.989 
02:45	39.1	39.1	39.1	63	27.6	0	2	248	0.00	29.990 
02:50	38.9	38.9	38.9	63	27.4	0	3	248	0.00	29.990 
02:55	38.8	38.8	38.8	63	27.3	0	2	248	0.00	29.990 
03:00	38.8	38.8	38.8	63	27.3	0	2	248	0.00	29.989 
03:05	38.6	38.6	38.6	64	27.5	0	2	248	0.00	29.983 
03:10	38.6	38.6	38.6	64	27.5	0	1	248	0.00	29.980 
03:15	38.3	38.3	38.3	64	27.2	0	1	248	0.00	29.980 
03:20	38.2	38.2	38.2	64	27.1	0	0	---	0.00	29.978 
03:25	38.0	38.0	38.0	65	27.3	0	1	248	0.00	29.984 
03:30	37.8	37.8	37.8	65	27.1	0	1	248	0.00	29.987 
03:35	37.6	37.6	37.6	66	27.3	0	0	---	0.00	29.989 
03:40	37.3	37.3	37.3	66	27.0	0	1	248	0.00	29.990 
03:45	37.3	37.3	37.3	67	27.4	0	1	248	0.00	29.993 
03:50	37.3	37.3	37.3	67	27.4	0	2	248	0.00	29.994 
03:55	37.3	37.3	37.3	67	27.4	0	1	248	0.00	29.994 
04:00	37.2	37.2	37.2	67	27.3	0	1	248	0.00	29.994 
04:05	37.0	37.0	37.0	67	27.1	0	1	248	0.00	29.993 
04:10	37.0	37.0	37.0	67	27.1	0	1	248	0.00	29.993 
04:15	36.9	36.9	36.9	67	27.0	0	1	248	0.00	29.996 
04:20	36.6	36.6	36.6	68	27.1	0	1	248	0.00	30.000 
04:25	36.6	36.6	36.6	68	27.1	0	1	248	0.00	30.005 
04:30	36.3	36.3	36.3	68	26.8	0	0	---	0.00	30.003 
04:35	36.2	36.2	36.2	69	27.0	0	0	---	0.00	30.008 
04:40	35.9	35.9	35.9	69	26.7	0	0	---	0.00	30.008 
04:45	35.6	35.6	35.6	70	26.8	0	1	248	0.00	30.010 
04:50	35.5	35.5	35.5	70	26.7	0	0	---	0.00	30.010 
04:55	35.2	35.2	35.2	71	26.8	0	0	---	0.00	30.010 
05:00	34.9	34.9	34.9	71	26.5	0	0	---	0.00	30.010 
05:05	34.6	34.6	34.6	72	26.5	0	0	---	0.00	30.009 
05:10	34.3	34.3	34.3	73	26.6	0	0	---	0.00	30.013 
05:15	34.1	34.1	34.1	73	26.4	0	0	---	0.00	30.015 
05:20	33.8	33.8	33.8	74	26.4	0	0	---	0.00	30.012 
05:25	33.5	33.5	33.5	74	26.1	0	0	---	0.00	30.010 
05:30	33.1	33.1	33.1	74	25.7	0	0	---	0.00	30.012 
05:35	32.7	32.7	32.7	75	25.7	0	0	---	0.00	30.021 
05:40	32.5	32.5	32.5	77	26.1	0	0	---	0.00	30.023 
05:45	32.2	32.2	32.2	77	25.8	0	0	---	0.00	30.027 
05:50	32.1	32.1	32.1	78	26.0	0	0	---	0.00	30.028 
05:55	31.8	31.8	31.8	78	25.7	0	0	---	0.00	30.027 
06:00	31.5	31.5	31.5	78	25.4	0	0	---	0.00	30.027 
06:05	31.0	31.0	31.0	79	25.3	0	0	---	0.00	30.032 
06:10	30.9	30.9	30.9	80	25.5	0	0	---	0.00	30.042 
06:15	30.7	30.7	30.7	81	25.6	0	0	---	0.00	30.045 
06:20	30.6	30.6	30.6	81	25.5	0	0	---	0.00	30.049 
06:25	30.4	30.4	30.4	81	25.3	0	0	---	0.00	30.045 
06:30	30.1	30.1	30.1	82	25.3	0	0	---	0.00	30.044 
06:35	30.0	30.0	30.0	82	25.2	0	0	---	0.00	30.046 
06:40	29.8	29.8	29.8	83	25.3	0	0	---	0.00	30.046 
06:45	29.7	29.7	29.7	83	25.2	0	0	---	0.00	30.050 
06:50	29.5	29.5	29.5	84	25.3	0	0	---	0.00	30.049 
06:55	29.5	29.5	29.5	84	25.3	0	0	---	0.00	30.049 
07:00	29.5	29.5	29.5	84	25.3	0	0	---	0.00	30.053 
07:05	29.7	29.7	29.7	84	25.5	0	0	---	0.00	30.056 
07:10	29.8	29.8	29.8	85	25.9	0	0	---	0.00	30.055 
07:15	30.1	30.1	30.1	85	26.1	0	0	---	0.00	30.060 
07:20	30.6	30.6	30.6	85	26.6	0	0	---	0.00	30.061 
07:25	31.2	31.2	31.2	86	27.5	0	0	---	0.00	30.062 
07:30	31.8	31.8	31.8	85	27.8	0	0	---	0.00	30.063 
07:35	32.7	32.7	32.7	84	28.4	0	0	---	0.00	30.061 
07:40	33.8	33.8	33.8	82	28.9	0	0	---	0.00	30.062 
07:45	34.6	34.6	34.6	80	29.1	0	0	---	0.00	30.064 
07:50	35.2	35.2	35.2	78	29.0	0	0	---	0.00	30.065 
07:55	35.9	35.9	35.9	76	29.1	0	0	---	0.00	30.069 
08:00	36.5	36.5	36.5	74	29.0	0	1	248	0.00	30.067 
08:05	37.0	37.0	37.0	73	29.2	0	1	248	0.00	30.070 
08:10	37.6	37.6	37.6	72	29.4	0	1	248	0.00	30.070 
08:15	38.2	38.2	38.2	71	29.6	0	1	248	0.00	30.070 
08:20	38.8	38.8	38.8	70	29.9	0	1	248	0.00	30.071 
08:25	39.2	39.2	39.2	69	29.9	0	1	248	0.00	30.071 
08:30	39.8	39.8	39.8	68	30.1	0	1	248	0.00	30.067 
08:35	40.2	40.2	40.2	67	30.1	0	1	248	0.00	30.066 
08:40	40.6	40.6	40.6	66	30.1	0	1	248	0.00	30.067 
08:45	41.1	41.1	41.1	66	30.6	0	1	248	0.00	30.068 
08:50	41.5	41.5	41.5	66	31.0	0	1	248	0.00	30.066 
08:55	41.6	41.6	41.6	65	30.7	0	3	248	0.00	30.062 
09:00	42.1	42.1	42.1	65	31.2	0	1	292	0.00	30.067 
09:05	42.6	42.6	42.6	65	31.7	0	2	292	0.00	30.070 
09:10	42.6	42.6	42.6	64	31.3	1	2	292	0.00	30.068 
09:15	43.1	43.1	43.1	65	32.1	0	2	292	0.00	30.069 
09:20	43.3	43.3	43.3	63	31.6	0	2	292	0.00	30.069 
09:25	43.6	43.6	43.6	60	30.6	0	2	292	0.00	30.074 
09:30	43.8	43.8	43.8	61	31.2	1	3	270	0.00	30.074 
09:35	44.1	44.1	44.1	60	31.1	0	1	270	0.00	30.076 
09:40	44.8	44.8	44.8	58	30.9	0	2	270	0.00	30.077 
09:45	45.2	45.2	45.2	56	30.4	1	3	270	0.00	30.076 
09:50	45.7	45.7	45.7	54	30.0	0	3	315	0.00	30.077 
09:55	46.0	46.0	46.0	57	31.6	0	2	270	0.00	30.077 
10:00	46.1	46.1	46.1	57	31.7	1	4	270	0.00	30.077 
10:05	45.8	45.8	45.8	57	31.4	1	5	315	0.00	30.082 
10:10	46.2	46.2	46.2	55	30.9	0	2	292	0.00	30.080 
10:15	46.4	46.4	46.4	53	30.2	1	4	248	0.00	30.083 
10:20	46.2	46.2	46.2	56	31.4	1	3	248	0.00	30.084 
10:25	46.4	46.4	46.4	55	31.1	1	3	225	0.00	30.084 
10:30	45.8	45.8	45.8	55	30.6	1	4	248	0.00	30.084 
10:35	45.7	45.7	45.7	55	30.5	1	5	248	0.00	30.084 
10:40	46.4	46.4	46.4	57	32.0	1	3	248	0.00	30.084 
10:45	46.2	46.2	46.2	54	30.5	2	7	248	0.00	30.084 
10:50	46.1	46.1	46.1	56	31.3	1	4	248	0.00	30.083 
10:55	47.0	47.0	47.0	56	32.1	1	3	315	0.00	30.083 
11:00	47.4	47.4	47.4	52	30.7	1	4	338	0.00	30.080 
11:05	48.0	48.0	48.0	52	31.2	2	7	248	0.00	30.081 
11:10	48.3	48.3	48.3	50	30.5	2	7	248	0.00	30.080 
11:15	48.5	48.5	48.5	51	31.2	3	9	248	0.00	30.081 
11:20	48.6	48.6	48.6	52	31.8	2	10	248	0.00	30.082 
11:25	48.9	48.9	48.9	53	32.5	1	4	248	0.00	30.082 
11:30	49.2	49.2	49.2	51	31.9	2	5	248	0.00	30.081 
11:35	48.9	48.9	48.9	52	32.1	1	5	248	0.00	30.082 
11:40	48.8	48.8	48.8	51	31.5	1	4	270	0.00	30.081 
11:45	48.5	48.5	48.5	53	32.2	1	3	270	0.00	30.082 
11:50	47.9	47.9	47.9	50	30.2	2	5	270	0.00	30.084 
11:55	48.6	48.6	48.6	53	32.3	1	5	270	0.00	30.082 
12:00	49.4	49.4	49.4	51	32.0	1	4	248	0.00	30.081 
12:05	49.8	49.8	49.8	49	31.4	3	9	248	0.00	30.084 
12:10	49.4	49.4	49.4	49	31.0	3	9	270	0.00	30.084 
12:15	49.5	49.5	49.5	53	33.1	3	5	248	0.00	30.085 
12:20	49.9	49.9	49.9	48	31.0	2	6	270	0.00	30.084 
12:25	49.9	49.9	49.9	49	31.5	2	7	270	0.00	30.084 
12:30	49.6	49.6	49.6	48	30.7	2	5	270	0.00	30.084 
12:35	49.8	49.8	49.8	50	31.9	2	6	270	0.00	30.085 
12:40	49.5	49.5	49.5	47	30.1	2	5	292	0.00	30.085 
12:45	49.2	49.2	49.2	50	31.4	2	5	292	0.00	30.083 
12:50	49.9	49.9	49.9	51	32.5	2	6	270	0.00	30.082 
12:55	50.4	50.4	50.4	48	31.5	2	10	270	0.00	30.080 
13:00	50.5	50.5	50.5	46	30.5	3	9	248	0.00	30.071 
13:05	50.8	50.8	50.8	47	31.3	2	7	248	0.00	30.077 
13:10	51.3	51.3	51.3	47	31.8	2	9	248	0.00	30.075 
13:15	51.9	51.9	51.9	45	31.2	2	5	248	0.00	30.069 
13:20	51.9	51.9	51.9	46	31.8	3	12	248	0.00	30.070 
13:25	51.9	51.9	51.9	44	30.7	3	7	248	0.00	30.067 
13:30	52.0	52.0	52.0	46	31.9	2	5	248	0.00	30.066 
13:35	52.0	52.0	52.0	46	31.9	1	4	248	0.00	30.065 
13:40	52.3	52.3	52.3	42	29.9	3	10	248	0.00	30.062 
13:45	52.5	52.5	52.5	45	31.8	2	6	248	0.00	30.060 
13:50	52.2	52.2	52.2	44	31.0	3	9	270	0.00	30.063 
13:55	52.5	52.5	52.5	44	31.2	2	6	338	0.00	30.063 
14:00	52.6	52.6	52.6	43	30.7	2	4	270	0.00	30.056 
14:05	52.6	52.6	52.6	43	30.7	3	10	248	0.00	30.053 
14:10	52.6	52.6	52.6	42	30.2	4	11	270	0.00	30.055 
14:15	52.3	52.3	52.3	42	29.9	2	5	270	0.00	30.054 
14:20	52.8	52.8	52.8	44	31.5	2	5	248	0.00	30.051 
14:25	52.6	52.6	52.6	42	30.2	2	7	270	0.00	30.050 
14:30	52.5	52.5	52.5	42	30.1	3	8	248	0.00	30.048 
14:35	52.2	52.2	52.2	42	29.8	3	10	248	0.00	30.046 
14:40	52.5	52.5	52.5	42	30.1	3	10	270	0.00	30.043 
14:45	53.1	53.1	53.1	43	31.2	2	5	270	0.00	30.039 
14:50	53.1	53.1	53.1	39	28.8	2	6	270	0.00	30.038 
14:55	52.8	52.8	52.8	41	29.8	2	7	270	0.00	30.037 
15:00	53.3	53.3	53.3	41	30.2	2	4	292	0.00	30.035 
15:05	53.3	53.3	53.3	40	29.6	3	7	270	0.00	30.037 
15:10	53.3	53.3	53.3	41	30.2	2	5	270	0.00	30.033 
15:15	53.5	53.5	53.5	39	29.2	2	4	270	0.00	30.033 
15:20	53.5	53.5	53.5	38	28.5	4	11	270	0.00	30.036 
15:25	53.2	53.2	53.2	38	28.3	3	6	270	0.00	30.034 
15:30	53.5	53.5	53.5	36	27.2	3	6	270	0.00	30.034 
15:35	53.5	53.5	53.5	37	27.9	2	5	270	0.00	30.032 
15:40	53.1	53.1	53.1	35	26.2	2	5	270	0.00	30.024 
15:45	52.9	52.9	52.9	37	27.3	2	5	248	0.00	30.023 
15:50	53.1	53.1	53.1	36	26.9	2	6	292	0.00	30.023 
15:55	53.3	53.3	53.3	35	26.4	2	5	270	0.00	30.022 
16:00	53.5	53.5	53.5	35	26.5	3	10	248	0.00	30.021 
16:05	53.5	53.5	53.5	34	25.8	2	10	248	0.00	30.022 
16:10	53.1	53.1	53.1	35	26.2	3	6	270	0.00	30.021 
16:15	52.9	52.9	52.9	35	26.0	2	4	270	0.00	30.021 
16:20	52.5	52.5	52.5	35	25.6	2	7	270	0.00	30.020 
16:25	52.2	52.2	52.2	38	27.4	1	4	315	0.00	30.021 
16:30	52.2	52.2	52.2	35	25.4	2	5	270	0.00	30.021 
16:35	52.3	52.3	52.3	36	26.1	1	7	338	0.00	30.019 
16:40	52.3	52.3	52.3	36	26.1	2	6	270	0.00	30.015 
16:45	52.3	52.3	52.3	36	26.1	3	5	270	0.00	30.017 
16:50	52.0	52.0	52.0	36	25.9	2	4	248	0.00	30.018 
16:55	52.2	52.2	52.2	38	27.4	1	5	270	0.00	30.024 
17:00	51.9	51.9	51.9	36	25.8	2	4	292	0.00	30.020 
17:05	51.7	51.7	51.7	36	25.6	1	4	270	0.00	30.023 
17:10	51.6	51.6	51.6	37	26.2	1	3	270	0.00	30.024 
17:15	51.1	51.1	51.1	37	25.7	2	7	315	0.00	30.028 
17:20	50.7	50.7	50.7	36	24.7	2	5	315	0.00	30.028 
17:25	50.5	50.5	50.5	37	25.2	1	3	270	0.00	30.028 
17:30	50.5	50.5	50.5	38	25.9	1	3	292	0.00	30.032 
17:35	50.5	50.5	50.5	37	25.2	1	4	315	0.00	30.031 
17:40	50.4	50.4	50.4	39	26.4	1	3	338	0.00	30.033 
17:45	50.2	50.2	50.2	39	26.2	2	4	315	0.00	30.033 
17:50	50.1	50.1	50.1	39	26.1	2	4	315	0.00	30.032 
17:55	50.1	50.1	50.1	38	25.5	1	5	270	0.00	30.030 
18:00	49.9	49.9	49.9	39	25.9	1	3	292	0.00	30.032 
18:05	49.9	49.9	49.9	39	25.9	1	4	338	0.00	30.034 
18:10	49.8	49.8	49.8	39	25.9	1	4	270	0.00	30.033 
18:15	49.8	49.8	49.8	39	25.9	1	3	248	0.00	30.032 
18:20	49.6	49.6	49.6	39	25.7	0	3	248	0.00	30.034 
18:25	49.5	49.5	49.5	39	25.6	1	3	338	0.00	30.033 
18:30	49.4	49.4	49.4	40	26.1	0	3	270	0.00	30.034 
18:35	49.2	49.2	49.2	42	27.1	0	1	270	0.00	30.041 
18:40	48.9	48.9	48.9	42	26.8	0	1	270	0.00	30.045 
18:45	48.9	48.9	48.9	43	27.4	0	1	270	0.00	30.048 
18:50	48.8	48.8	48.8	43	27.3	0	1	270	0.00	30.049 
18:55	48.6	48.6	48.6	44	27.7	0	1	270	0.00	30.051 
19:00	48.6	48.6	48.6	43	27.1	0	2	270	0.00	30.051 
19:05	48.6	48.6	48.6	43	27.1	0	1	270	0.00	30.043 
19:10	48.5	48.5	48.5	44	27.6	0	1	270	0.00	30.046 
19:15	48.3	48.3	48.3	45	28.0	0	1	270	0.00	30.053 
19:20	48.2	48.2	48.2	44	27.3	0	2	248	0.00	30.053 
19:25	48.2	48.2	48.2	44	27.3	0	2	248	0.00	30.057 
19:30	48.2	48.2	48.2	45	27.9	0	1	248	0.00	30.058 
19:35	48.2	48.2	48.2	45	27.9	0	1	248	0.00	30.055 
19:40	48.0	48.0	48.0	45	27.7	0	1	248	0.00	30.058 
19:45	48.0	48.0	48.0	46	28.2	0	1	248	0.00	30.060 
19:50	47.9	47.9	47.9	46	28.1	0	2	248	0.00	30.058 
19:55	47.7	47.7	47.7	46	27.9	0	3	248	0.00	30.059 
20:00	47.7	47.7	47.7	46	27.9	0	1	248	0.00	30.058 
20:05	47.6	47.6	47.6	46	27.9	0	1	248	0.00	30.054 
20:10	47.6	47.6	47.6	46	27.9	0	1	248	0.00	30.055 
20:15	47.6	47.6	47.6	46	27.9	0	1	248	0.00	30.058 
20:20	47.4	47.4	47.4	47	28.2	0	1	248	0.00	30.057 
20:25	47.3	47.3	47.3	48	28.6	0	1	248	0.00	30.055 
20:30	47.0	47.0	47.0	48	28.3	0	1	248	0.00	30.054 
20:35	46.8	46.8	46.8	47	27.6	0	0	---	0.00	30.050 
20:40	46.7	46.7	46.7	48	28.1	0	0	---	0.00	30.053 
20:45	46.5	46.5	46.5	49	28.4	0	0	---	0.00	30.055 
20:50	46.2	46.2	46.2	48	27.6	0	0	---	0.00	30.056 
20:55	46.0	46.0	46.0	48	27.4	0	0	---	0.00	30.056 
21:00	45.7	45.7	45.7	49	27.6	0	0	---	0.00	30.059 
21:05	45.4	45.4	45.4	50	27.9	0	0	---	0.00	30.059 
21:10	45.1	45.1	45.1	50	27.6	0	0	---	0.00	30.060 
21:15	44.6	44.6	44.6	51	27.6	0	0	---	0.00	30.063 
21:20	44.5	44.5	44.5	51	27.5	0	0	---	0.00	30.059 
21:25	44.2	44.2	44.2	53	28.2	0	0	---	0.00	30.055 
21:30	44.1	44.1	44.1	53	28.1	0	0	---	0.00	30.055 
21:35	43.9	43.9	43.9	54	28.3	0	0	---	0.00	30.055 
21:40	43.8	43.8	43.8	54	28.3	0	0	---	0.00	30.053 
21:45	43.6	43.6	43.6	56	29.0	0	0	---	0.00	30.048 
21:50	43.5	43.5	43.5	55	28.4	0	0	---	0.00	30.052 
21:55	43.5	43.5	43.5	55	28.4	0	0	---	0.00	30.047 
22:00	43.5	43.5	43.5	56	28.9	0	0	---	0.00	30.048 
22:05	43.3	43.3	43.3	56	28.7	0	0	---	0.00	30.047 
22:10	43.3	43.3	43.3	58	29.5	0	0	---	0.00	30.044 
22:15	43.3	43.3	43.3	56	28.7	0	0	---	0.00	30.040 
22:20	43.3	43.3	43.3	58	29.5	0	0	---	0.00	30.038 
22:25	43.3	43.3	43.3	58	29.5	0	0	---	0.00	30.037 
22:30	43.2	43.2	43.2	57	29.0	0	0	---	0.00	30.036 
22:35	43.1	43.1	43.1	58	29.3	0	0	---	0.00	30.031 
22:40	43.1	43.1	43.1	60	30.2	0	0	---	0.00	30.024 
22:45	42.9	42.9	42.9	60	30.0	0	0	---	0.00	30.024 
22:50	42.8	42.8	42.8	60	29.9	0	0	---	0.00	30.023 
22:55	42.6	42.6	42.6	60	29.7	0	0	---	0.00	30.021 
23:00	42.5	42.5	42.5	60	29.6	0	0	---	0.00	30.015 
23:05	42.5	42.5	42.5	60	29.6	0	0	---	0.00	30.014 
23:10	42.3	42.3	42.3	61	29.8	0	0	---	0.00	30.008 
23:15	42.3	42.3	42.3	59	29.0	0	0	---	0.00	30.006 
23:20	42.2	42.2	42.2	58	28.5	0	0	---	0.00	30.006 
23:25	42.1	42.1	42.1	58	28.4	0	0	---	0.00	30.004 
23:30	42.2	42.2	42.2	58	28.5	0	1	248	0.00	30.004 
23:35	42.2	42.2	42.2	59	28.9	0	0	---	0.00	30.004 
23:40	42.2	42.2	42.2	62	30.1	0	1	248	0.00	30.004 
23:45	42.1	42.1	42.1	62	30.0	0	1	248	0.00	30.005 
23:50	42.2	42.2	42.2	61	29.7	0	1	248	0.00	30.005 
23:55	42.2	42.2	42.2	61	29.7	0	0	---	0.00	30.004 

CoCoRaHS
IN-AL-39
A2 Web Hosting
Creative Commons License
GoDaddy
Look for:

loaded 2017-12-12 07:35:38 • last modified 2010-11-18 10:43:29
Privacy PolicyDisclaimer
• wx.awcolley.com is powered by PmWiki v.2002016 •
• all content (unless otherwise noted) © 2017 A W Colley